Oneiro — SVA3427 — position and weather

sailwx.info

Track history (hours):
 
Tides and Currents Weather Stations Pressure Air Temp Water Temp Dewpoint Dewpoint Depression Visibility Wind Speed Wind Dir Waves Ship Positions

Oneiro

Last reported at 2016-Sep-26 19:34 UTC. Time now 2016-Sep-26 20:43 UTC.
Position N 37°53' E 023°43'.

Length 53 m; draft 3 m.

Type: Pleasure craft. MMSI: 241024000.

Date/timePositionNaut miles runAvg speedWind from/ knotsBaromVisibWave heightAir tempDewpointWater temp
2016-Sep-26 19:34N 37°53' E 023°43'0 0.0
2016-Sep-26 15:33N 37°53' E 023°43'0 0.0
2016-Sep-26 13:34N 37°53' E 023°43'0 0.0
2016-Sep-26 11:34N 37°53' E 023°43'0 0.0
2016-Sep-26 08:34N 37°53' E 023°43'0 0.0
2016-Sep-26 02:33N 37°53' E 023°43'0 0.0
2016-Sep-26 01:34N 37°53' E 023°43'0 0.0
2016-Sep-26 00:34N 37°53' E 023°43'0 0.0
2016-Sep-25 21:34N 37°53' E 023°43'0 0.0
2016-Sep-25 17:34N 37°53' E 023°43'0 0.0
2016-Sep-25 16:34N 37°53' E 023°43'0 0.0
2016-Sep-25 15:34N 37°53' E 023°43'0 0.0
2016-Sep-25 14:34N 37°53' E 023°43'0 0.0
2016-Sep-25 12:33N 37°53' E 023°43'0 0.0
2016-Sep-25 11:34N 37°53' E 023°43'0 0.0
2016-Sep-25 10:34N 37°53' E 023°43'0 0.0
2016-Sep-25 09:34N 37°53' E 023°43'0 0.0
2016-Sep-25 07:34N 37°53' E 023°43'0 0.0
2016-Sep-25 04:34N 37°53' E 023°43'0 0.0
2016-Sep-25 00:34N 37°53' E 023°43'0 0.0
2016-Sep-24 22:34N 37°53' E 023°43'0 0.0
2016-Sep-24 21:34N 37°53' E 023°43'0 0.0
2016-Sep-24 19:34N 37°53' E 023°43'0 0.0
2016-Sep-24 18:34N 37°53' E 023°43'0 0.0
2016-Sep-24 17:33N 37°53' E 023°43'0 0.0
2016-Sep-24 16:34N 37°53' E 023°43'0 0.0
2016-Sep-24 14:34N 37°53' E 023°43'0 0.0
2016-Sep-24 12:34N 37°53' E 023°43'0 0.0
2016-Sep-24 10:33N 37°53' E 023°43'0 0.0
2016-Sep-24 09:33N 37°53' E 023°43'26 4.3
2016-Sep-24 03:32N 37°31' E 023°25'2 1.9
2016-Sep-24 02:33N 37°30' E 023°27'0 0.0
2016-Sep-24 01:33N 37°30' E 023°27'0 0.0
2016-Sep-24 00:33N 37°30' E 023°27'0 0.0
2016-Sep-23 19:33N 37°30' E 023°27'0 0.0
2016-Sep-23 17:33N 37°30' E 023°27'0 0.0
2016-Sep-23 16:33N 37°30' E 023°27'9 0.9
2016-Sep-23 06:33N 37°21' E 023°28'34 1.0
2016-Sep-21 19:32N 37°34' E 022°48'37 1.1
2016-Sep-20 10:32N 37°29' E 023°34'2211.0
2016-Sep-20 08:34N 37°50' E 023°41'4 3.5
2016-Sep-20 07:33N 37°53' E 023°43'0 0.0
2016-Sep-20 06:33N 37°53' E 023°43'0 0.0
2016-Sep-20 02:33N 37°53' E 023°43'0 0.0
2016-Sep-19 23:34N 37°53' E 023°43'0 0.0
2016-Sep-19 19:33N 37°53' E 023°43'0 0.0
2016-Sep-19 18:33N 37°53' E 023°43'0 0.0
2016-Sep-19 16:33N 37°53' E 023°43'0 0.0
2016-Sep-19 14:34N 37°53' E 023°43'0 0.0
2016-Sep-19 13:34N 37°53' E 023°43'0 0.0
2016-Sep-19 12:33N 37°53' E 023°43'0 0.0
2016-Sep-19 11:33N 37°53' E 023°43'0 0.0
2016-Sep-19 09:33N 37°53' E 023°43'0 0.0
2016-Sep-19 07:33N 37°53' E 023°43'0 0.0
2016-Sep-19 06:33N 37°53' E 023°43'0 0.0
2016-Sep-19 03:33N 37°53' E 023°43'0 0.0
2016-Sep-19 02:33N 37°53' E 023°43'0 0.0
2016-Sep-19 00:33N 37°53' E 023°43'0 0.0
2016-Sep-18 19:34N 37°53' E 023°43'0 0.0
2016-Sep-18 15:34N 37°53' E 023°43'0 0.0
2016-Sep-18 14:34N 37°53' E 023°43'0 0.0
2016-Sep-18 10:33N 37°53' E 023°43'0 0.0
2016-Sep-18 09:33N 37°53' E 023°43'0 0.0
2016-Sep-18 02:33N 37°53' E 023°43'0 0.0
2016-Sep-18 01:34N 37°53' E 023°43'0 0.0
2016-Sep-18 00:33N 37°53' E 023°43'0 0.0
2016-Sep-17 22:33N 37°53' E 023°43'0 0.0
2016-Sep-17 21:33N 37°53' E 023°43'0 0.0
2016-Sep-17 20:33N 37°53' E 023°43'0 0.0
2016-Sep-17 19:16N 37°53' E 023°43'0 0.0
2016-Sep-17 13:34N 37°53' E 023°43'0 0.0
2016-Sep-17 12:33N 37°53' E 023°43'0 0.0
2016-Sep-17 10:33N 37°53' E 023°43'0 0.0
2016-Sep-17 09:34N 37°53' E 023°43'0 0.0
2016-Sep-17 08:33N 37°53' E 023°43'0 0.0
2016-Sep-17 07:33N 37°53' E 023°43'0 0.0
2016-Sep-17 05:34N 37°53' E 023°43'0 0.0
2016-Sep-17 04:33N 37°53' E 023°43'0 0.0
2016-Sep-17 00:33N 37°53' E 023°43'  
Track history (hours):
 
Tides and Currents Weather Stations Pressure Air Temp Water Temp Dewpoint Dewpoint Depression Visibility Wind Speed Wind Dir Waves Ship Positions

Oneiro

Last reported at 2016-Sep-26 19:34 UTC. Time now 2016-Sep-26 20:43 UTC.
Position N 37°53' E 023°43'.

Length 53 m; draft 3 m.

Type: Pleasure craft. MMSI: 241024000.

Date/timePositionNaut miles runAvg speedWind from/ knotsBaromVisibWave heightAir tempDewpointWater temp
2016-Sep-26 19:34N 37°53' E 023°43'0 0.0
2016-Sep-26 15:33N 37°53' E 023°43'0 0.0
2016-Sep-26 13:34N 37°53' E 023°43'0 0.0
2016-Sep-26 11:34N 37°53' E 023°43'0 0.0
2016-Sep-26 08:34N 37°53' E 023°43'0 0.0
2016-Sep-26 02:33N 37°53' E 023°43'0 0.0
2016-Sep-26 01:34N 37°53' E 023°43'0 0.0
2016-Sep-26 00:34N 37°53' E 023°43'0 0.0
2016-Sep-25 21:34N 37°53' E 023°43'0 0.0
2016-Sep-25 17:34N 37°53' E 023°43'0 0.0
2016-Sep-25 16:34N 37°53' E 023°43'0 0.0
2016-Sep-25 15:34N 37°53' E 023°43'0 0.0
2016-Sep-25 14:34N 37°53' E 023°43'0 0.0
2016-Sep-25 12:33N 37°53' E 023°43'0 0.0
2016-Sep-25 11:34N 37°53' E 023°43'0 0.0
2016-Sep-25 10:34N 37°53' E 023°43'0 0.0
2016-Sep-25 09:34N 37°53' E 023°43'0 0.0
2016-Sep-25 07:34N 37°53' E 023°43'0 0.0
2016-Sep-25 04:34N 37°53' E 023°43'0 0.0
2016-Sep-25 00:34N 37°53' E 023°43'0 0.0
2016-Sep-24 22:34N 37°53' E 023°43'0 0.0
2016-Sep-24 21:34N 37°53' E 023°43'0 0.0
2016-Sep-24 19:34N 37°53' E 023°43'0 0.0
2016-Sep-24 18:34N 37°53' E 023°43'0 0.0
2016-Sep-24 17:33N 37°53' E 023°43'0 0.0
2016-Sep-24 16:34N 37°53' E 023°43'0 0.0
2016-Sep-24 14:34N 37°53' E 023°43'0 0.0
2016-Sep-24 12:34N 37°53' E 023°43'0 0.0
2016-Sep-24 10:33N 37°53' E 023°43'0 0.0
2016-Sep-24 09:33N 37°53' E 023°43'26 4.3
2016-Sep-24 03:32N 37°31' E 023°25'2 1.9
2016-Sep-24 02:33N 37°30' E 023°27'0 0.0
2016-Sep-24 01:33N 37°30' E 023°27'0 0.0
2016-Sep-24 00:33N 37°30' E 023°27'0 0.0
2016-Sep-23 19:33N 37°30' E 023°27'0 0.0
2016-Sep-23 17:33N 37°30' E 023°27'0 0.0
2016-Sep-23 16:33N 37°30' E 023°27'9 0.9
2016-Sep-23 06:33N 37°21' E 023°28'34 1.0
2016-Sep-21 19:32N 37°34' E 022°48'37 1.1
2016-Sep-20 10:32N 37°29' E 023°34'2211.0
2016-Sep-20 08:34N 37°50' E 023°41'4 3.5
2016-Sep-20 07:33N 37°53' E 023°43'0 0.0
2016-Sep-20 06:33N 37°53' E 023°43'0 0.0
2016-Sep-20 02:33N 37°53' E 023°43'0 0.0
2016-Sep-19 23:34N 37°53' E 023°43'0 0.0
2016-Sep-19 19:33N 37°53' E 023°43'0 0.0
2016-Sep-19 18:33N 37°53' E 023°43'0 0.0
2016-Sep-19 16:33N 37°53' E 023°43'0 0.0
2016-Sep-19 14:34N 37°53' E 023°43'0 0.0
2016-Sep-19 13:34N 37°53' E 023°43'0 0.0
2016-Sep-19 12:33N 37°53' E 023°43'0 0.0
2016-Sep-19 11:33N 37°53' E 023°43'0 0.0
2016-Sep-19 09:33N 37°53' E 023°43'0 0.0
2016-Sep-19 07:33N 37°53' E 023°43'0 0.0
2016-Sep-19 06:33N 37°53' E 023°43'0 0.0
2016-Sep-19 03:33N 37°53' E 023°43'0 0.0
2016-Sep-19 02:33N 37°53' E 023°43'0 0.0
2016-Sep-19 00:33N 37°53' E 023°43'0 0.0
2016-Sep-18 19:34N 37°53' E 023°43'0 0.0
2016-Sep-18 15:34N 37°53' E 023°43'0 0.0
2016-Sep-18 14:34N 37°53' E 023°43'0 0.0
2016-Sep-18 10:33N 37°53' E 023°43'0 0.0
2016-Sep-18 09:33N 37°53' E 023°43'0 0.0
2016-Sep-18 02:33N 37°53' E 023°43'0 0.0
2016-Sep-18 01:34N 37°53' E 023°43'0 0.0
2016-Sep-18 00:33N 37°53' E 023°43'0 0.0
2016-Sep-17 22:33N 37°53' E 023°43'0 0.0
2016-Sep-17 21:33N 37°53' E 023°43'0 0.0
2016-Sep-17 20:33N 37°53' E 023°43'0 0.0
2016-Sep-17 19:16N 37°53' E 023°43'0 0.0
2016-Sep-17 13:34N 37°53' E 023°43'0 0.0
2016-Sep-17 12:33N 37°53' E 023°43'0 0.0
2016-Sep-17 10:33N 37°53' E 023°43'0 0.0
2016-Sep-17 09:34N 37°53' E 023°43'0 0.0
2016-Sep-17 08:33N 37°53' E 023°43'0 0.0
2016-Sep-17 07:33N 37°53' E 023°43'0 0.0
2016-Sep-17 05:34N 37°53' E 023°43'0 0.0
2016-Sep-17 04:33N 37°53' E 023°43'0 0.0
2016-Sep-17 00:33N 37°53' E 023°43'  

Dump ship's entire track history